createdAt,value
2018-12-18T00:01:56.587Z,75.10
2018-12-18T00:04:26.936Z,73.80
2018-12-18T00:06:57.286Z,73.30
2018-12-18T00:09:25.636Z,73.30
2018-12-18T00:11:59.254Z,73.20
2018-12-18T00:14:24.535Z,73.20
2018-12-18T00:16:52.817Z,73.10
2018-12-18T00:19:21.133Z,73.50
2018-12-18T00:21:49.443Z,73.90
2018-12-18T00:24:17.751Z,74.10
2018-12-18T00:26:46.027Z,74.20
2018-12-18T00:29:14.356Z,74.40
2018-12-18T00:31:42.897Z,74.80
2018-12-18T00:34:11.225Z,75.10
2018-12-18T00:36:39.565Z,75.70
2018-12-18T00:39:12.345Z,76.50
2018-12-18T00:41:40.862Z,78.00
2018-12-18T00:44:09.229Z,78.10
2018-12-18T00:46:37.617Z,77.90
2018-12-18T00:49:06.155Z,74.70
2018-12-18T00:51:34.541Z,74.10
2018-12-18T00:54:02.832Z,73.80
2018-12-18T00:56:31.267Z,73.20
2018-12-18T00:58:59.865Z,72.70
2018-12-18T01:01:28.191Z,72.50
2018-12-18T01:03:56.490Z,72.50
2018-12-18T01:06:24.804Z,72.70
2018-12-18T01:08:53.263Z,72.90
2018-12-18T01:11:21.555Z,73.00
2018-12-18T01:13:49.870Z,72.90
2018-12-18T01:16:18.431Z,72.50
2018-12-18T01:18:49.104Z,71.90
2018-12-18T01:21:17.562Z,71.40
2018-12-18T01:23:45.911Z,71.10
2018-12-18T01:26:14.300Z,71.10
2018-12-18T01:28:42.938Z,70.90
2018-12-18T01:31:11.576Z,70.70
2018-12-18T01:33:39.896Z,70.40
2018-12-18T01:36:08.188Z,70.20
2018-12-18T01:38:40.205Z,70.20
2018-12-18T01:41:08.491Z,70.10
2018-12-18T01:43:36.776Z,70.50
2018-12-18T01:46:05.076Z,70.50
2018-12-18T01:48:33.531Z,70.90
2018-12-18T01:51:01.933Z,70.50
2018-12-18T01:53:30.465Z,70.50
2018-12-18T01:55:58.741Z,70.40
2018-12-18T01:58:27.071Z,76.30
2018-12-18T02:00:55.480Z,77.50
2018-12-18T02:03:23.881Z,81.10
2018-12-18T02:05:52.439Z,81.80
2018-12-18T02:08:20.782Z,83.30
2018-12-18T02:10:49.080Z,84.60
2018-12-18T02:13:17.735Z,85.90
2018-12-18T02:15:46.057Z,86.50
2018-12-18T02:18:14.540Z,87.00
2018-12-18T02:20:42.845Z,87.20
2018-12-18T02:23:11.176Z,86.90
2018-12-18T02:25:39.493Z,86.30
2018-12-18T02:28:07.876Z,85.80
2018-12-18T02:30:36.153Z,85.20
2018-12-18T02:33:04.831Z,85.00
2018-12-18T02:35:33.212Z,84.90
2018-12-18T02:38:01.500Z,84.10
2018-12-18T02:40:29.899Z,84.00
2018-12-18T02:42:58.199Z,83.80
2018-12-18T02:45:26.514Z,83.70
2018-12-18T02:47:54.804Z,84.50
2018-12-18T02:50:23.143Z,84.90
2018-12-18T02:52:51.404Z,85.50
2018-12-18T02:55:19.712Z,86.10
2018-12-18T02:57:49.079Z,86.40
2018-12-18T03:00:17.356Z,86.90
2018-12-18T03:02:45.692Z,87.00
2018-12-18T03:05:14.203Z,87.30
2018-12-18T03:07:42.553Z,87.40
2018-12-18T03:10:10.867Z,86.90
2018-12-18T03:12:39.163Z,86.70
2018-12-18T03:15:07.623Z,86.80
2018-12-18T03:17:36.024Z,87.00
2018-12-18T03:20:04.486Z,87.20
2018-12-18T03:22:32.882Z,87.70
2018-12-18T03:25:01.474Z,87.80
2018-12-18T03:27:30.706Z,87.10
2018-12-18T03:29:59.001Z,86.30
2018-12-18T03:32:32.005Z,86.00
2018-12-18T03:35:00.342Z,85.70
2018-12-18T03:37:28.659Z,85.10
2018-12-18T03:39:57.993Z,84.90
2018-12-18T03:42:26.357Z,82.60
2018-12-18T03:44:54.656Z,81.60
2018-12-18T03:47:22.972Z,81.50
2018-12-18T03:49:51.269Z,81.40
2018-12-18T03:52:19.588Z,81.90
2018-12-18T03:54:47.855Z,82.70
2018-12-18T03:57:16.160Z,83.30
2018-12-18T03:59:44.543Z,83.30
2018-12-18T04:02:13.121Z,83.60
2018-12-18T04:04:41.756Z,83.70
2018-12-18T04:07:11.133Z,83.60
2018-12-18T04:09:39.587Z,82.80
2018-12-18T04:12:09.078Z,78.70
2018-12-18T04:14:37.473Z,78.30
2018-12-18T04:17:05.961Z,78.20
2018-12-18T04:19:34.271Z,77.40
2018-12-18T04:22:02.548Z,77.20
2018-12-18T04:24:30.904Z,77.50
2018-12-18T04:26:59.243Z,77.30
2018-12-18T04:29:27.529Z,77.30
2018-12-18T04:31:55.831Z,77.40
2018-12-18T04:34:24.128Z,77.80
2018-12-18T04:36:52.411Z,78.10
2018-12-18T04:39:20.733Z,77.90
2018-12-18T04:41:49.025Z,77.80
2018-12-18T04:44:17.299Z,77.50
2018-12-18T04:46:45.704Z,77.20
2018-12-18T04:49:13.980Z,76.70
2018-12-18T04:51:42.264Z,76.40
2018-12-18T04:54:10.635Z,75.90
2018-12-18T04:56:38.953Z,75.40
2018-12-18T04:59:07.247Z,75.00
2018-12-18T05:01:35.569Z,74.70
2018-12-18T05:04:03.971Z,74.60
2018-12-18T05:06:32.456Z,74.70
2018-12-18T05:09:00.767Z,74.30
2018-12-18T05:11:29.096Z,74.30
2018-12-18T05:13:57.915Z,74.10
2018-12-18T05:16:26.191Z,74.00
2018-12-18T05:18:54.563Z,74.00
2018-12-18T05:21:23.124Z,73.60
2018-12-18T05:23:51.444Z,73.50
2018-12-18T05:26:19.727Z,73.30
2018-12-18T05:28:48.028Z,73.10
2018-12-18T05:31:18.136Z,72.90
2018-12-18T05:33:46.513Z,72.10
2018-12-18T05:36:14.820Z,71.90
2018-12-18T05:38:43.124Z,72.10
2018-12-18T05:41:11.455Z,72.20
2018-12-18T05:43:39.804Z,72.60
2018-12-18T05:46:08.129Z,73.70
2018-12-18T05:48:36.470Z,74.30
2018-12-18T05:51:04.932Z,75.70
2018-12-18T05:53:34.660Z,76.30
2018-12-18T05:56:02.975Z,76.90
2018-12-18T05:58:31.297Z,77.30
2018-12-18T06:00:59.590Z,77.90
2018-12-18T06:03:27.886Z,79.80
2018-12-18T06:05:56.192Z,81.20
2018-12-18T06:08:24.476Z,82.00
2018-12-18T06:10:52.985Z,82.70
2018-12-18T06:13:21.343Z,82.90
2018-12-18T06:15:50.049Z,83.20
2018-12-18T06:18:18.391Z,83.10
2018-12-18T06:20:46.731Z,83.30
2018-12-18T06:23:15.856Z,83.50
2018-12-18T06:25:44.587Z,83.80
2018-12-18T06:28:12.947Z,84.00
2018-12-18T06:30:41.332Z,84.90
2018-12-18T06:33:09.624Z,86.00
2018-12-18T06:35:37.975Z,86.20
2018-12-18T06:38:06.292Z,86.50
2018-12-18T06:40:34.741Z,86.60
2018-12-18T06:43:03.165Z,85.70
2018-12-18T06:45:31.500Z,84.20
2018-12-18T06:47:59.849Z,83.50
2018-12-18T06:50:28.452Z,83.20
2018-12-18T06:52:56.832Z,83.40
2018-12-18T06:55:25.804Z,83.50
2018-12-18T06:57:54.245Z,84.00
2018-12-18T07:00:22.608Z,84.30
2018-12-18T07:02:51.136Z,84.40
2018-12-18T07:05:20.378Z,82.80
2018-12-18T07:07:48.737Z,81.30
2018-12-18T07:10:17.085Z,81.00
2018-12-18T07:12:45.391Z,83.10
2018-12-18T07:15:13.756Z,83.30
2018-12-18T07:17:42.348Z,83.80
2018-12-18T07:20:10.822Z,83.80
2018-12-18T07:22:39.199Z,84.20
2018-12-18T07:25:07.510Z,84.00
2018-12-18T07:27:36.008Z,83.80
2018-12-18T07:30:04.924Z,83.60
2018-12-18T07:32:33.382Z,82.80
2018-12-18T07:35:01.694Z,81.90
2018-12-18T07:37:30.047Z,70.70
2018-12-18T07:39:58.331Z,50.30
2018-12-18T07:42:26.644Z,44.90
2018-12-18T07:44:55.057Z,39.70
2018-12-18T07:47:23.410Z,38.30
2018-12-18T07:49:51.733Z,38.00
2018-12-18T07:52:20.112Z,36.90
2018-12-18T07:54:48.416Z,36.60
2018-12-18T07:57:16.707Z,36.60
2018-12-18T07:59:45.142Z,36.50
2018-12-18T08:02:13.455Z,36.70
2018-12-18T08:04:41.768Z,36.90
2018-12-18T08:07:10.097Z,37.20
2018-12-18T08:09:38.413Z,37.40
2018-12-18T08:12:06.754Z,37.50
2018-12-18T08:14:35.040Z,37.30
2018-12-18T08:17:03.361Z,36.00
2018-12-18T08:19:31.688Z,35.30
2018-12-18T08:22:00.040Z,34.60
2018-12-18T08:24:28.572Z,34.20
2018-12-18T08:26:57.041Z,33.70
2018-12-18T08:29:25.404Z,33.80
2018-12-18T08:31:53.683Z,33.50
2018-12-18T08:34:22.004Z,33.40
2018-12-18T08:36:50.379Z,33.30
2018-12-18T08:39:18.928Z,33.00
2018-12-18T08:41:47.367Z,33.00
2018-12-18T08:44:15.711Z,32.90
2018-12-18T08:46:44.521Z,42.20
2018-12-18T08:49:12.872Z,47.60
2018-12-18T08:51:41.347Z,48.10
2018-12-18T08:54:10.841Z,48.20
2018-12-18T08:56:39.574Z,48.90
2018-12-18T08:59:08.085Z,49.10
2018-12-18T09:01:36.548Z,49.80
2018-12-18T09:04:05.234Z,50.10
2018-12-18T09:06:33.552Z,50.50
2018-12-18T09:09:02.047Z,51.90
2018-12-18T09:11:32.435Z,52.50
2018-12-18T09:14:00.856Z,52.70
2018-12-18T09:16:35.009Z,52.90
2018-12-18T09:19:04.428Z,52.80
2018-12-18T09:21:33.037Z,52.10
2018-12-18T09:24:01.370Z,51.70
2018-12-18T09:26:29.699Z,51.60
2018-12-18T09:28:57.998Z,51.40
2018-12-18T09:31:26.315Z,51.50
2018-12-18T09:33:54.639Z,51.20
2018-12-18T09:36:22.983Z,51.10
2018-12-18T09:38:56.752Z,51.10
2018-12-18T09:41:25.159Z,51.20
2018-12-18T09:43:58.328Z,51.40
2018-12-18T09:46:26.709Z,51.40
2018-12-18T09:48:55.036Z,52.50
2018-12-18T09:51:23.387Z,52.70
2018-12-18T09:53:51.712Z,52.80
2018-12-18T09:56:20.014Z,52.90
2018-12-18T09:58:48.540Z,53.10
2018-12-18T10:01:16.857Z,53.20
2018-12-18T10:03:45.175Z,52.60
2018-12-18T10:06:13.581Z,52.20
2018-12-18T10:08:41.892Z,51.60
2018-12-18T10:11:10.448Z,51.20
2018-12-18T10:13:38.769Z,50.90
2018-12-18T10:16:07.164Z,50.70
2018-12-18T10:18:35.511Z,50.60
2018-12-18T10:21:03.960Z,50.60
2018-12-18T10:23:33.529Z,50.60
2018-12-18T10:26:01.904Z,50.60
2018-12-18T10:28:31.467Z,50.50
2018-12-18T10:30:59.823Z,50.60
2018-12-18T10:33:28.560Z,50.70
2018-12-18T10:36:02.918Z,50.80
2018-12-18T10:38:30.248Z,51.20
2018-12-18T10:40:59.732Z,51.60
2018-12-18T10:43:28.030Z,51.60
2018-12-18T10:45:56.377Z,51.60
2018-12-18T10:48:24.800Z,51.40
2018-12-18T10:50:53.413Z,51.30
2018-12-18T10:53:21.760Z,51.10
2018-12-18T10:55:50.191Z,50.90
2018-12-18T10:58:24.007Z,51.00
2018-12-18T11:01:56.226Z,51.00
2018-12-18T11:04:24.576Z,51.50
2018-12-18T11:06:52.917Z,51.80
2018-12-18T11:09:23.289Z,51.90
2018-12-18T11:11:51.639Z,52.10
2018-12-18T11:14:19.992Z,52.30
2018-12-18T11:16:48.320Z,52.60
2018-12-18T11:19:16.732Z,52.40
2018-12-18T11:21:45.088Z,51.80
2018-12-18T11:24:13.483Z,51.80
2018-12-18T11:26:41.787Z,51.50
2018-12-18T11:29:10.115Z,51.20
2018-12-18T11:31:38.508Z,51.00
2018-12-18T11:34:06.854Z,50.70
2018-12-18T11:36:35.190Z,50.70
2018-12-18T11:39:06.260Z,50.60
2018-12-18T11:41:36.739Z,50.60
2018-12-18T11:44:05.146Z,50.30
2018-12-18T11:46:33.482Z,50.00
2018-12-18T11:49:01.795Z,49.90
2018-12-18T11:51:30.093Z,49.70
2018-12-18T11:53:58.411Z,49.20
2018-12-18T11:56:26.791Z,48.70
2018-12-18T11:58:55.088Z,48.70
2018-12-18T12:01:23.641Z,48.80
2018-12-18T12:03:52.251Z,48.80
2018-12-18T12:06:23.225Z,49.10
2018-12-18T12:08:51.797Z,49.30
2018-12-18T12:11:20.216Z,49.60
2018-12-18T12:13:48.743Z,49.60
2018-12-18T12:16:17.044Z,49.70
2018-12-18T12:18:45.445Z,49.60
2018-12-18T12:21:13.826Z,49.40
2018-12-18T12:23:42.145Z,49.40
2018-12-18T12:26:16.047Z,49.50
2018-12-18T12:28:44.372Z,49.40
2018-12-18T12:31:12.732Z,49.40
2018-12-18T12:33:41.075Z,54.70
2018-12-18T12:36:09.531Z,54.30
2018-12-18T12:38:39.072Z,54.60
2018-12-18T12:41:07.639Z,53.90
2018-12-18T12:43:36.233Z,52.00
2018-12-18T12:46:04.773Z,51.70
2018-12-18T12:48:38.716Z,51.20
2018-12-18T12:51:07.114Z,50.90
2018-12-18T12:53:35.464Z,50.60
2018-12-18T12:56:04.001Z,50.90
2018-12-18T12:58:32.397Z,50.90
2018-12-18T13:01:01.166Z,51.90
2018-12-18T13:03:31.449Z,54.10
2018-12-18T13:05:59.869Z,55.20
2018-12-18T13:08:29.985Z,55.50
2018-12-18T13:10:58.650Z,56.00
2018-12-18T13:13:27.048Z,56.50
2018-12-18T13:15:55.860Z,56.50
2018-12-18T13:18:24.358Z,57.00
2018-12-18T13:20:53.382Z,57.20
2018-12-18T13:23:23.859Z,57.00
2018-12-18T13:25:53.496Z,56.70
2018-12-18T13:28:22.683Z,56.50
2018-12-18T13:30:52.525Z,56.40
2018-12-18T13:33:21.810Z,55.90
2018-12-18T13:35:51.177Z,55.60
2018-12-18T13:38:21.862Z,55.40
2018-12-18T13:40:52.396Z,55.30
2018-12-18T13:43:21.562Z,55.20
2018-12-18T13:45:50.954Z,54.80
2018-12-18T13:48:20.315Z,54.50
2018-12-18T13:50:49.635Z,54.20
2018-12-18T13:53:24.667Z,54.10
2018-12-18T13:55:53.939Z,53.80
2018-12-18T13:58:23.159Z,53.50
2018-12-18T14:00:52.357Z,53.50
2018-12-18T14:03:21.423Z,53.70
2018-12-18T14:05:50.770Z,53.60
2018-12-18T14:08:20.067Z,53.60
2018-12-18T14:10:49.559Z,54.00
2018-12-18T14:13:18.711Z,55.10
2018-12-18T14:15:47.932Z,55.90
2018-12-18T14:18:17.007Z,56.40
2018-12-18T14:20:46.510Z,56.70
2018-12-18T14:23:15.718Z,57.00
2018-12-18T14:25:44.838Z,56.80
2018-12-18T14:28:13.950Z,56.90
2018-12-18T14:30:43.056Z,56.90
2018-12-18T14:33:12.174Z,56.80
2018-12-18T14:35:41.290Z,56.80
2018-12-18T14:38:10.398Z,56.90
2018-12-18T14:40:39.438Z,57.10
2018-12-18T14:43:08.621Z,57.00
2018-12-18T14:45:38.149Z,57.10
2018-12-18T14:48:07.406Z,57.30
2018-12-18T14:50:36.835Z,57.40
2018-12-18T14:53:06.106Z,57.70
2018-12-18T14:55:35.318Z,57.70
2018-12-18T14:58:04.465Z,57.90
2018-12-18T15:00:33.521Z,58.00
2018-12-18T15:03:02.634Z,58.40
2018-12-18T15:05:31.780Z,59.20
2018-12-18T15:08:00.911Z,59.50
2018-12-18T15:10:30.767Z,60.00
2018-12-18T15:12:59.851Z,60.60
2018-12-18T15:15:28.998Z,60.90
2018-12-18T15:17:58.142Z,61.60
2018-12-18T15:20:28.007Z,61.70
2018-12-18T15:22:57.435Z,62.20
2018-12-18T15:25:26.519Z,62.60
2018-12-18T15:27:55.634Z,63.00
2018-12-18T15:30:26.269Z,63.50
2018-12-18T15:32:55.467Z,63.80
2018-12-18T15:35:24.975Z,64.10
2018-12-18T15:37:54.198Z,64.20
2018-12-18T15:40:23.473Z,64.40
2018-12-18T15:42:52.842Z,65.00
2018-12-18T15:45:21.947Z,66.30
2018-12-18T15:47:51.270Z,66.90
2018-12-18T15:50:20.471Z,67.50
2018-12-18T15:52:49.565Z,68.40
2018-12-18T15:55:18.780Z,69.40
2018-12-18T15:57:47.943Z,69.80
2018-12-18T16:00:17.197Z,70.30
2018-12-18T16:02:46.417Z,70.70
2018-12-18T16:05:15.547Z,70.80
2018-12-18T16:07:44.782Z,70.50
2018-12-18T16:10:13.892Z,69.10
2018-12-18T16:12:48.364Z,69.00
2018-12-18T16:15:17.487Z,68.60
2018-12-18T16:17:46.698Z,68.50
2018-12-18T16:20:17.966Z,68.60
2018-12-18T16:22:51.590Z,68.80
2018-12-18T16:25:20.723Z,69.90
2018-12-18T16:27:49.828Z,70.70
2018-12-18T16:30:19.071Z,70.90
2018-12-18T16:32:48.171Z,70.90
2018-12-18T16:35:17.331Z,70.80
2018-12-18T16:37:46.438Z,70.40
2018-12-18T16:40:17.419Z,70.20
2018-12-18T16:42:47.890Z,69.70
2018-12-18T16:45:18.727Z,69.90
2018-12-18T16:47:47.963Z,70.40
2018-12-18T16:50:17.657Z,71.30
2018-12-18T16:52:46.798Z,74.90
2018-12-18T16:55:15.923Z,77.20
2018-12-18T16:57:45.095Z,77.60
2018-12-18T17:00:14.394Z,78.40
2018-12-18T17:02:44.994Z,78.60
2018-12-18T17:05:14.252Z,78.80
2018-12-18T17:07:43.311Z,78.70
2018-12-18T17:10:12.402Z,79.40
2018-12-18T17:12:46.322Z,80.80
2018-12-18T17:15:22.329Z,82.30
2018-12-18T17:17:51.402Z,83.80
2018-12-18T17:20:20.563Z,84.40
2018-12-18T17:22:49.850Z,85.10
2018-12-18T17:25:18.918Z,85.50
2018-12-18T17:27:49.141Z,85.70
2018-12-18T17:30:18.334Z,85.60
2018-12-18T17:32:47.476Z,85.80
2018-12-18T17:35:16.628Z,85.70
2018-12-18T17:37:45.779Z,84.50
2018-12-18T17:40:14.850Z,83.90
2018-12-18T17:42:43.939Z,83.60
2018-12-18T17:45:13.934Z,82.40
2018-12-18T17:47:43.058Z,82.30
2018-12-18T17:50:12.128Z,80.80
2018-12-18T17:52:41.244Z,78.50
2018-12-18T17:55:10.408Z,76.30
2018-12-18T17:57:39.555Z,75.10
2018-12-18T18:00:08.830Z,74.80
2018-12-18T18:02:37.934Z,73.80
2018-12-18T18:05:07.012Z,73.50
2018-12-18T18:07:42.682Z,73.20
2018-12-18T18:10:07.431Z,73.30
2018-12-18T18:12:36.621Z,73.30
2018-12-18T18:15:05.872Z,73.00
2018-12-18T18:17:35.151Z,73.30
2018-12-18T18:20:05.479Z,72.70
2018-12-18T18:22:36.027Z,72.80
2018-12-18T18:25:05.398Z,71.60
2018-12-18T18:27:34.546Z,72.10
2018-12-18T18:30:05.200Z,73.80
2018-12-18T18:32:34.446Z,73.80
2018-12-18T18:35:03.620Z,74.10
2018-12-18T18:37:32.753Z,74.10
2018-12-18T18:40:01.831Z,73.90
2018-12-18T18:42:33.816Z,73.60
2018-12-18T18:45:02.924Z,73.00
2018-12-18T18:47:33.095Z,72.50
2018-12-18T18:50:02.227Z,72.10
2018-12-18T18:55:30.055Z,71.90
2018-12-18T19:18:53.153Z,73.90
2018-12-18T19:21:24.275Z,74.10
2018-12-18T19:23:53.465Z,74.40
2018-12-18T19:26:22.540Z,74.60
2018-12-18T19:28:52.193Z,74.70
2018-12-18T19:42:00.851Z,74.60
2018-12-18T19:44:29.997Z,74.70
2018-12-18T19:46:59.084Z,74.80
2018-12-18T19:49:28.176Z,74.70
2018-12-18T19:51:57.354Z,74.80
2018-12-18T19:54:26.460Z,75.10
2018-12-18T19:56:55.521Z,74.90
2018-12-18T19:59:24.627Z,74.70
2018-12-18T20:01:53.711Z,74.50
2018-12-18T20:04:53.148Z,74.70
2018-12-18T20:07:22.330Z,74.60
2018-12-18T20:09:52.336Z,74.70
2018-12-18T20:12:22.304Z,74.80
2018-12-18T20:14:52.148Z,75.00
2018-12-18T20:17:20.760Z,75.40
2018-12-18T20:19:49.323Z,75.50
2018-12-18T20:22:17.928Z,75.70
2018-12-18T20:24:46.369Z,75.90
2018-12-18T20:27:14.978Z,76.40
2018-12-18T20:29:43.387Z,76.50
2018-12-18T20:32:11.881Z,76.80
2018-12-18T20:34:40.380Z,76.90
2018-12-18T20:37:08.760Z,77.40
2018-12-18T20:39:37.178Z,77.70
2018-12-18T20:42:05.536Z,77.90
2018-12-18T20:44:33.950Z,78.30
2018-12-18T20:47:02.419Z,78.60
2018-12-18T20:49:30.852Z,78.80
2018-12-18T20:52:00.037Z,79.00
2018-12-18T20:54:28.425Z,79.10
2018-12-18T20:56:56.916Z,79.10
2018-12-18T20:59:25.316Z,79.00
2018-12-18T21:01:53.680Z,78.70
2018-12-18T21:04:22.424Z,78.40
2018-12-18T21:06:50.950Z,77.90
2018-12-18T21:09:19.283Z,77.60
2018-12-18T21:11:47.670Z,77.40
2018-12-18T21:14:16.992Z,77.20
2018-12-18T21:16:45.343Z,77.10
2018-12-18T21:19:13.683Z,78.70
2018-12-18T21:21:42.042Z,79.00
2018-12-18T21:24:10.431Z,79.40
2018-12-18T21:26:38.762Z,79.00
2018-12-18T21:29:07.357Z,79.50
2018-12-18T21:31:36.351Z,79.20
2018-12-18T21:34:04.930Z,80.50
2018-12-18T21:36:33.313Z,82.70
2018-12-18T21:39:01.662Z,82.60
2018-12-18T21:41:32.033Z,81.30
2018-12-18T21:44:00.328Z,80.80
2018-12-18T21:46:28.706Z,80.20
2018-12-18T21:48:57.272Z,79.70
2018-12-18T21:51:25.582Z,79.30
2018-12-18T21:53:53.875Z,79.40
2018-12-18T21:56:22.282Z,79.30
2018-12-18T21:58:50.650Z,79.60
2018-12-18T22:01:19.554Z,80.00
2018-12-18T22:03:47.921Z,80.80
2018-12-18T22:06:16.282Z,81.70
2018-12-18T22:08:44.653Z,82.20
2018-12-18T22:11:13.044Z,82.60
2018-12-18T22:13:41.349Z,83.10
2018-12-18T22:16:09.685Z,83.00
2018-12-18T22:18:38.026Z,81.50
2018-12-18T22:21:06.419Z,80.00
2018-12-18T22:23:34.728Z,79.90
2018-12-18T22:26:03.134Z,79.40
2018-12-18T22:28:31.440Z,79.00
2018-12-18T22:31:00.717Z,78.90
2018-12-18T22:33:29.016Z,78.50
2018-12-18T22:35:57.345Z,78.50
2018-12-18T22:38:25.663Z,78.40
2018-12-18T22:40:53.990Z,78.40
2018-12-18T22:43:22.379Z,78.30
2018-12-18T22:45:51.763Z,78.40
2018-12-18T22:48:21.940Z,78.60
2018-12-18T22:50:50.298Z,79.00
2018-12-18T22:53:18.636Z,79.30
2018-12-18T22:55:46.969Z,79.40
2018-12-18T22:58:15.316Z,79.70
2018-12-18T23:00:53.093Z,79.80
2018-12-18T23:03:22.485Z,79.70
2018-12-18T23:05:51.021Z,79.40
2018-12-18T23:08:19.376Z,78.70
2018-12-18T23:10:47.723Z,78.10
2018-12-18T23:13:21.605Z,77.50
2018-12-18T23:15:50.166Z,76.70
2018-12-18T23:18:18.544Z,76.20
2018-12-18T23:20:46.869Z,76.00
2018-12-18T23:23:15.256Z,76.20
2018-12-18T23:25:43.754Z,76.60
2018-12-18T23:28:12.095Z,76.70
2018-12-18T23:30:40.441Z,77.10
2018-12-18T23:33:08.777Z,77.60
2018-12-18T23:35:37.075Z,77.90
2018-12-18T23:38:05.384Z,78.10
2018-12-18T23:40:33.796Z,78.10
2018-12-18T23:43:02.099Z,78.40
2018-12-18T23:45:30.443Z,78.70
2018-12-18T23:47:58.727Z,78.80
2018-12-18T23:50:27.071Z,78.70
2018-12-18T23:52:55.493Z,78.60
2018-12-18T23:55:23.938Z,78.80
2018-12-18T23:57:52.339Z,79.00
